Time;durP1;ratioP1;P1;durP2;ratioP2;P2;SDS_P1;SDS_P2;PMS_P1;PMS_P2;Temp;Humidity;BMP_temperature;BMP_pressure;BME280_temperature;BME280_humidity;BME280_pressure;Samples;Min_cycle;Max_cycle;Signal;HPM_P1;HPM_P2
2021/12/26 00:00:44;;;;;;;8.55;6.00;;;;;;;-140.79;100.00;63287.88;5023823;28;20065;-55
2021/12/26 00:03:10;;;;;;;8.43;6.00;;;;;;;-140.79;100.00;63287.88;5023846;28;20033;-57
2021/12/26 00:05:35;;;;;;;10.32;6.40;;;;;;;-140.79;100.00;63287.88;5023966;28;20061;-56
2021/12/26 00:08:01;;;;;;;11.55;6.88;;;;;;;-140.79;100.00;63287.88;5026230;28;20064;-56
2021/12/26 00:10:26;;;;;;;9.13;6.30;;;;;;;-140.79;100.00;63287.88;5027913;28;20022;-55
2021/12/26 00:12:52;;;;;;;9.13;5.90;;;;;;;-140.79;100.00;63287.88;5010155;28;20834;-57
2021/12/26 00:15:17;;;;;;;8.95;5.90;;;;;;;-140.79;100.00;63287.88;5027870;28;20171;-56
2021/12/26 00:17:43;;;;;;;8.82;6.07;;;;;;;-140.79;100.00;63287.88;5027404;28;20120;-54
2021/12/26 00:20:09;;;;;;;7.93;5.85;;;;;;;-140.79;100.00;63287.88;5027454;28;20041;-56
2021/12/26 00:22:34;;;;;;;11.10;6.72;;;;;;;-140.79;100.00;63287.88;5027735;28;20115;-57
2021/12/26 00:25:00;;;;;;;8.95;6.30;;;;;;;-140.79;100.00;63287.88;5027592;28;20509;-56
2021/12/26 00:27:26;;;;;;;10.15;6.40;;;;;;;-140.79;100.00;63287.88;5027321;28;20037;-54
2021/12/26 00:29:51;;;;;;;8.95;6.15;;;;;;;-140.79;100.00;63287.88;5027033;28;20025;-57
2021/12/26 00:32:17;;;;;;;9.10;6.65;;;;;;;-140.79;100.00;63287.88;5027299;28;20029;-57
2021/12/26 00:34:42;;;;;;;9.15;5.88;;;;;;;-140.79;100.00;63287.88;5027234;28;20033;-56
2021/12/26 00:37:08;;;;;;;9.18;6.22;;;;;;;-140.79;100.00;63287.88;5027492;28;20044;-54
2021/12/26 00:39:33;;;;;;;8.98;6.38;;;;;;;-140.79;100.00;63287.88;5027047;28;20033;-57
2021/12/26 00:41:59;;;;;;;9.95;6.55;;;;;;;-140.79;100.00;63287.88;5026701;28;20038;-55
2021/12/26 00:44:25;;;;;;;8.93;6.05;;;;;;;-140.79;100.00;63287.88;5027217;28;20066;-56
2021/12/26 00:46:53;;;;;;;9.07;6.85;;;;;;;-140.79;100.00;63287.88;5027038;28;20088;-56
2021/12/26 00:49:20;;;;;;;8.95;6.07;;;;;;;-140.79;100.00;63287.88;5026654;28;20044;-56
2021/12/26 00:51:45;;;;;;;9.05;6.20;;;;;;;-140.79;100.00;63287.88;5026525;28;20026;-57
2021/12/26 00:54:10;;;;;;;8.52;6.10;;;;;;;-140.79;100.00;63287.88;5027125;28;20423;-57
2021/12/26 00:56:36;;;;;;;8.43;6.22;;;;;;;-140.79;100.00;63287.88;5027086;28;20495;-54
2021/12/26 00:59:01;;;;;;;8.95;6.45;;;;;;;-140.79;100.00;63287.88;5026871;28;20029;-56
2021/12/26 01:01:27;;;;;;;8.75;6.00;;;;;;;-140.79;100.00;63287.88;5027007;28;20037;-57
2021/12/26 01:03:52;;;;;;;7.72;5.50;;;;;;;-140.79;100.00;63287.88;5026692;28;20187;-57
2021/12/26 01:06:18;;;;;;;10.35;6.55;;;;;;;-140.79;100.00;63287.88;5027295;28;20414;-56
2021/12/26 01:08:47;;;;;;;9.48;5.85;;;;;;;-140.79;100.00;63287.88;5027139;28;20037;-54
2021/12/26 01:11:21;;;;;;;9.60;5.95;;;;;;;-140.79;100.00;63287.88;5026939;28;20038;-56
2021/12/26 01:13:47;;;;;;;7.53;5.78;;;;;;;-140.79;100.00;63287.88;5026367;28;20049;-56
2021/12/26 01:16:13;;;;;;;9.10;6.10;;;;;;;-140.79;100.00;63287.88;5026943;28;20022;-56
2021/12/26 01:18:42;;;;;;;8.48;6.50;;;;;;;-140.79;100.00;63287.88;5025455;28;20041;-57
2021/12/26 01:23:46;;;;;;;9.70;6.88;;;;;;;-140.79;100.00;63287.88;5025601;28;20111;-56
2021/12/26 01:26:12;;;;;;;9.18;6.60;;;;;;;-140.79;100.00;63287.88;5026404;28;20646;-54
2021/12/26 01:28:37;;;;;;;8.38;5.85;;;;;;;-140.79;100.00;63287.88;5025941;28;20041;-57
2021/12/26 01:31:03;;;;;;;9.45;6.47;;;;;;;-140.79;100.00;63287.88;5008110;28;20037;-56
2021/12/26 01:33:28;;;;;;;9.35;6.40;;;;;;;-140.79;100.00;63287.88;5026000;28;20030;-57
2021/12/26 01:35:54;;;;;;;8.35;6.53;;;;;;;-140.79;100.00;63287.88;5025768;28;20032;-57
2021/12/26 01:38:20;;;;;;;8.32;6.20;;;;;;;-140.79;100.00;63287.88;5025721;28;20091;-56
2021/12/26 01:40:50;;;;;;;9.35;6.30;;;;;;;-140.79;100.00;63287.88;5026127;28;20211;-56
2021/12/26 01:43:16;;;;;;;8.77;6.03;;;;;;;-140.79;100.00;63287.88;5008474;28;20423;-57
2021/12/26 01:45:42;;;;;;;8.75;6.60;;;;;;;-140.79;100.00;63287.88;5025708;28;20506;-57
2021/12/26 01:48:07;;;;;;;8.52;6.22;;;;;;;-140.79;100.00;63287.88;5007484;28;20025;-57
2021/12/26 01:50:33;;;;;;;8.07;5.70;;;;;;;-140.79;100.00;63287.88;5024127;28;20056;-57
2021/12/26 01:52:59;;;;;;;8.63;6.18;;;;;;;-140.79;100.00;63287.88;5025586;28;20033;-57
2021/12/26 01:55:37;;;;;;;7.57;5.60;;;;;;;-140.79;100.00;63287.88;5008036;28;20671;-56
2021/12/26 01:58:02;;;;;;;8.27;5.90;;;;;;;-140.79;100.00;63287.88;5025303;28;20065;-57
2021/12/26 02:00:28;;;;;;;9.02;6.13;;;;;;;-140.79;100.00;63287.88;5025439;28;20477;-59
2021/12/26 02:02:53;;;;;;;7.88;5.78;;;;;;;-140.79;100.00;63287.88;5025355;28;20099;-59
2021/12/26 02:05:19;;;;;;;8.52;6.22;;;;;;;-140.79;100.00;63287.88;5025295;28;20037;-59
2021/12/26 02:07:44;;;;;;;7.60;5.88;;;;;;;-140.79;100.00;63287.88;5025071;28;20957;-56
2021/12/26 02:10:10;;;;;;;9.02;6.13;;;;;;;-140.79;100.00;63287.88;5025121;28;20037;-56
2021/12/26 02:12:35;;;;;;;7.53;5.70;;;;;;;-140.79;100.00;63287.88;5024508;28;20041;-56
2021/12/26 02:15:01;;;;;;;7.68;6.18;;;;;;;-140.79;100.00;63287.88;5025369;28;20494;-56
2021/12/26 02:17:28;;;;;;;8.27;6.30;;;;;;;-140.79;100.00;63287.88;5024996;28;20140;-56
2021/12/26 02:20:11;;;;;;;6.80;5.38;;;;;;;-140.79;100.00;63287.88;5024332;28;20041;-57
2021/12/26 02:22:39;;;;;;;7.18;5.28;;;;;;;-140.79;100.00;63287.88;5024693;28;20045;-56
2021/12/26 02:27:31;;;;;;;7.90;5.90;;;;;;;-140.79;100.00;63287.88;5024807;28;20071;-57
2021/12/26 02:30:01;;;;;;;8.88;6.30;;;;;;;-140.79;100.00;63287.88;5023599;28;20761;-56
2021/12/26 02:32:27;;;;;;;8.10;5.82;;;;;;;-140.79;100.00;63287.88;5024675;28;20030;-57
2021/12/26 02:34:53;;;;;;;7.80;6.07;;;;;;;-140.79;100.00;63287.88;5024425;28;20037;-56
2021/12/26 02:37:18;;;;;;;8.60;6.10;;;;;;;-140.79;100.00;63287.88;5024589;28;20029;-56
2021/12/26 02:39:44;;;;;;;7.70;5.72;;;;;;;-140.79;100.00;63287.88;5024811;28;20013;-56
2021/12/26 02:42:09;;;;;;;7.38;5.70;;;;;;;-140.79;100.00;63287.88;5024415;28;20064;-56
2021/12/26 02:44:34;;;;;;;8.10;5.47;;;;;;;-140.79;100.00;63287.88;5024628;28;20033;-57
2021/12/26 02:47:00;;;;;;;8.32;5.55;;;;;;;-140.79;100.00;63287.88;5024413;28;20060;-53
2021/12/26 02:49:26;;;;;;;7.72;5.43;;;;;;;-140.79;100.00;63287.88;5024371;28;20474;-56
2021/12/26 02:51:51;;;;;;;7.30;5.22;;;;;;;-140.79;100.00;63287.88;5024347;28;20034;-57
2021/12/26 02:54:17;;;;;;;8.68;6.40;;;;;;;-140.79;100.00;63287.88;5024542;28;20090;-56
2021/12/26 02:56:42;;;;;;;8.40;5.70;;;;;;;-140.79;100.00;63287.88;5006608;28;20041;-57
2021/12/26 02:59:08;;;;;;;8.88;6.15;;;;;;;-140.79;100.00;63287.88;5024401;28;20040;-57
2021/12/26 03:01:33;;;;;;;8.43;5.50;;;;;;;-140.79;100.00;63287.88;5024282;28;20773;-57
2021/12/26 03:04:00;;;;;;;7.95;5.80;;;;;;;-140.79;100.00;63287.88;5023872;28;20400;-57
2021/12/26 03:06:55;;;;;;;8.35;5.60;;;;;;;-140.79;100.00;63287.88;5022831;28;20491;-57
2021/12/26 03:09:13;;;;;;;7.03;5.10;;;;;;;-140.79;100.00;63287.88;5022950;28;20108;-57
2021/12/26 03:11:39;;;;;;;8.32;5.85;;;;;;;-140.79;100.00;63287.88;5024073;28;20798;-57
2021/12/26 03:14:05;;;;;;;8.80;6.10;;;;;;;-140.79;100.00;63287.88;5023847;28;20029;-56
2021/12/26 03:16:31;;;;;;;8.93;6.25;;;;;;;-140.79;100.00;63287.88;5023090;28;20025;-57
2021/12/26 03:18:57;;;;;;;6.90;5.07;;;;;;;-140.79;100.00;63287.88;5024017;28;20024;-57
2021/12/26 03:21:23;;;;;;;7.22;5.45;;;;;;;-140.79;100.00;63287.88;5023021;28;20034;-56
2021/12/26 03:23:48;;;;;;;8.75;5.60;;;;;;;-140.79;100.00;63287.88;5023124;28;20049;-54
2021/12/26 03:26:13;;;;;;;8.15;5.70;;;;;;;-140.79;100.00;63287.88;5023846;28;20029;-56
2021/12/26 03:28:39;;;;;;;6.80;5.25;;;;;;;-140.79;100.00;63287.88;5023618;28;20025;-56
2021/12/26 03:31:04;;;;;;;8.70;5.80;;;;;;;-140.79;100.00;63287.88;5023695;28;20064;-57
2021/12/26 03:33:30;;;;;;;7.32;5.15;;;;;;;-140.79;100.00;63287.88;5023762;28;20036;-57
2021/12/26 03:35:55;;;;;;;7.63;5.57;;;;;;;-140.79;100.00;63287.88;5023402;28;20091;-57
2021/12/26 03:38:21;;;;;;;8.13;5.57;;;;;;;-140.79;100.00;63287.88;5023639;28;20068;-57
2021/12/26 03:40:47;;;;;;;7.15;5.45;;;;;;;-140.79;100.00;63287.88;5023878;28;20159;-57
2021/12/26 03:43:12;;;;;;;8.23;5.43;;;;;;;-140.79;100.00;63287.88;5026137;28;20052;-56
2021/12/26 03:45:42;;;;;;;8.07;5.40;;;;;;;-140.79;100.00;63287.88;5028089;28;20393;-61
2021/12/26 03:48:07;;;;;;;7.88;5.30;;;;;;;-140.79;100.00;63287.88;5027329;28;20044;-54
2021/12/26 03:50:34;;;;;;;8.18;5.53;;;;;;;-140.79;100.00;63287.88;5027661;28;20509;-57
2021/12/26 03:53:01;;;;;;;7.80;5.40;;;;;;;-140.79;100.00;63287.88;5027295;28;20475;-56
2021/12/26 03:55:27;;;;;;;7.38;5.38;;;;;;;-140.79;100.00;63287.88;5027832;28;20033;-56
2021/12/26 03:57:53;;;;;;;7.88;5.88;;;;;;;-140.79;100.00;63287.88;5009461;28;20403;-56
2021/12/26 04:00:19;;;;;;;7.20;5.15;;;;;;;-140.79;100.00;63287.88;5027681;28;20029;-56
2021/12/26 04:02:45;;;;;;;6.97;5.60;;;;;;;-140.79;100.00;63287.88;5027243;28;20506;-57
2021/12/26 04:05:11;;;;;;;7.05;5.25;;;;;;;-140.79;100.00;63287.88;5027595;28;20128;-57
2021/12/26 04:07:37;;;;;;;6.78;5.25;;;;;;;-140.79;100.00;63287.88;5027360;28;20040;-56
2021/12/26 04:10:04;;;;;;;7.97;5.28;;;;;;;-140.79;100.00;63287.88;5027069;28;20112;-55
2021/12/26 04:12:35;;;;;;;7.68;5.72;;;;;;;-140.79;100.00;63287.88;5027479;28;20037;-57
2021/12/26 04:15:02;;;;;;;6.63;5.07;;;;;;;-140.79;100.00;63287.88;5027529;28;20108;-56
2021/12/26 04:17:28;;;;;;;8.15;5.78;;;;;;;-140.79;100.00;63287.88;5027563;28;20029;-57
2021/12/26 04:19:53;;;;;;;7.30;5.35;;;;;;;-140.79;100.00;63287.88;5026943;28;20538;-56
2021/12/26 04:22:18;;;;;;;7.35;5.38;;;;;;;-140.79;100.00;63287.88;5027008;28;20681;-56
2021/12/26 04:24:44;;;;;;;7.25;5.45;;;;;;;-140.79;100.00;63287.88;5027445;28;20033;-56
2021/12/26 04:27:09;;;;;;;7.63;5.45;;;;;;;-140.79;100.00;63287.88;5026896;28;20048;-56
2021/12/26 04:29:35;;;;;;;7.22;5.25;;;;;;;-140.79;100.00;63287.88;5027020;28;20029;-56
2021/12/26 04:32:00;;;;;;;8.75;5.25;;;;;;;-140.79;100.00;63287.88;5026522;28;20161;-53
2021/12/26 04:34:25;;;;;;;6.50;5.10;;;;;;;-140.79;100.00;63287.88;5027139;28;20029;-56
2021/12/26 04:36:51;;;;;;;7.95;5.40;;;;;;;-140.79;100.00;63287.88;5027181;28;20037;-56
2021/12/26 04:39:16;;;;;;;6.45;4.57;;;;;;;-140.79;100.00;63287.88;5026729;28;20010;-54
2021/12/26 04:41:45;;;;;;;5.63;4.65;;;;;;;-140.79;100.00;63287.88;5027076;28;20045;-56
2021/12/26 04:44:10;;;;;;;6.95;5.25;;;;;;;-140.79;100.00;63287.88;5026310;28;20041;-56
2021/12/26 04:46:36;;;;;;;7.95;5.28;;;;;;;-140.79;100.00;63287.88;5026908;28;20524;-56
2021/12/26 04:49:02;;;;;;;6.47;4.55;;;;;;;-140.79;100.00;63287.88;5026882;28;20099;-55
2021/12/26 04:51:27;;;;;;;6.82;5.18;;;;;;;-140.79;100.00;63287.88;5009097;28;20065;-56
2021/12/26 04:53:52;;;;;;;7.13;5.18;;;;;;;-140.79;100.00;63287.88;5026112;28;20033;-56
2021/12/26 04:56:18;;;;;;;8.43;5.40;;;;;;;-140.79;100.00;63287.88;5026736;28;20462;-56
2021/12/26 04:58:43;;;;;;;7.28;5.05;;;;;;;-140.79;100.00;63287.88;5026395;28;20491;-55
2021/12/26 05:01:09;;;;;;;6.68;5.43;;;;;;;-140.79;100.00;63287.88;5026515;28;20034;-56
2021/12/26 05:03:34;;;;;;;7.20;5.32;;;;;;;-140.79;100.00;63287.88;5026228;28;20044;-57
2021/12/26 05:06:00;;;;;;;7.13;5.05;;;;;;;-140.79;100.00;63287.88;5026328;28;20040;-56
2021/12/26 05:08:25;;;;;;;7.80;5.28;;;;;;;-140.79;100.00;63287.88;5026357;28;20021;-56
2021/12/26 05:10:50;;;;;;;6.10;4.80;;;;;;;-140.79;100.00;63287.88;5026552;28;20055;-56
2021/12/26 05:13:16;;;;;;;6.65;5.05;;;;;;;-140.79;100.00;63287.88;5026475;28;20033;-56
2021/12/26 05:15:41;;;;;;;5.88;4.50;;;;;;;-140.79;100.00;63287.88;5008544;28;20025;-56
2021/12/26 05:18:07;;;;;;;6.13;4.80;;;;;;;-140.79;100.00;63287.88;5025926;28;20029;-56
2021/12/26 05:20:33;;;;;;;7.68;5.03;;;;;;;-140.79;100.00;63287.88;5026147;28;20805;-56
2021/12/26 05:22:58;;;;;;;7.03;5.43;;;;;;;-140.79;100.00;63287.88;5025709;28;20053;-55
2021/12/26 05:25:24;;;;;;;6.65;5.13;;;;;;;-140.79;100.00;63287.88;5026076;28;20617;-55
2021/12/26 05:27:50;;;;;;;7.13;4.95;;;;;;;-140.79;100.00;63287.88;5026097;28;20059;-56
2021/12/26 05:30:18;;;;;;;7.78;5.03;;;;;;;-140.79;100.00;63287.88;5002109;28;20037;-58
2021/12/26 05:32:44;;;;;;;7.00;4.80;;;;;;;-140.79;100.00;63287.88;5026148;28;20037;-55
2021/12/26 05:35:10;;;;;;;7.35;4.50;;;;;;;-140.79;100.00;63287.88;5025860;28;20051;-55
2021/12/26 05:37:36;;;;;;;6.63;4.93;;;;;;;-140.79;100.00;63287.88;5025126;28;20555;-57
2021/12/26 05:40:03;;;;;;;6.90;4.47;;;;;;;-140.79;100.00;63287.88;5025319;28;20033;-57
2021/12/26 05:42:29;;;;;;;6.63;4.75;;;;;;;-140.79;100.00;63287.88;5025720;28;20045;-57
2021/12/26 05:44:54;;;;;;;7.15;4.65;;;;;;;-140.79;100.00;63287.88;5025627;28;20393;-56
2021/12/26 05:47:20;;;;;;;6.53;4.85;;;;;;;-140.79;100.00;63287.88;5025907;28;20037;-57
2021/12/26 05:49:45;;;;;;;6.85;4.82;;;;;;;-140.79;100.00;63287.88;5025652;28;20029;-57
2021/12/26 05:52:10;;;;;;;7.20;4.65;;;;;;;-140.79;100.00;63287.88;5025392;28;20034;-57
2021/12/26 05:54:36;;;;;;;7.07;4.80;;;;;;;-140.79;100.00;63287.88;5025335;28;20028;-57
2021/12/26 05:57:02;;;;;;;6.50;4.65;;;;;;;-140.79;100.00;63287.88;5025543;28;20026;-55
2021/12/26 05:59:27;;;;;;;7.25;5.28;;;;;;;-140.79;100.00;63287.88;5007593;28;20491;-57
2021/12/26 06:01:52;;;;;;;6.00;4.40;;;;;;;-140.79;100.00;63287.88;5024844;28;20554;-57
2021/12/26 06:04:18;;;;;;;6.32;4.50;;;;;;;-140.79;100.00;63287.88;5024650;28;20090;-57
2021/12/26 06:06:44;;;;;;;6.72;4.60;;;;;;;-140.79;100.00;63287.88;5024887;28;20037;-57
2021/12/26 06:09:10;;;;;;;7.13;3.80;;;;;;;-140.79;100.00;63287.88;5024666;28;20484;-58
2021/12/26 06:11:35;;;;;;;5.80;3.92;;;;;;;-140.79;100.00;63287.88;5024754;28;20044;-57
2021/12/26 06:14:00;;;;;;;7.07;4.78;;;;;;;-140.79;100.00;63287.88;5017761;28;20033;-57
2021/12/26 06:16:26;;;;;;;5.82;4.30;;;;;;;-140.79;100.00;63287.88;5027566;28;20033;-58
2021/12/26 06:18:51;;;;;;;7.25;4.50;;;;;;;-140.79;100.00;63287.88;5013312;28;20041;-57
2021/12/26 06:21:17;;;;;;;5.88;4.28;;;;;;;-140.79;100.00;63287.88;5024757;28;20052;-57
2021/12/26 06:23:50;;;;;;;6.03;4.55;;;;;;;-140.79;100.00;63287.88;5026741;28;20064;-58
2021/12/26 06:26:15;;;;;;;6.43;4.40;;;;;;;-140.79;100.00;63287.88;5024041;28;20064;-57
2021/12/26 06:28:41;;;;;;;6.63;4.70;;;;;;;-140.79;100.00;63287.88;5022698;28;20608;-58
2021/12/26 06:31:06;;;;;;;6.32;4.38;;;;;;;-140.79;100.00;63287.88;5014977;28;20033;-58
2021/12/26 06:33:31;;;;;;;6.47;4.15;;;;;;;-140.79;100.00;63287.88;5024674;28;20578;-55
2021/12/26 06:35:57;;;;;;;6.13;4.80;;;;;;;-140.79;100.00;63287.88;5024283;28;20026;-57
2021/12/26 06:38:22;;;;;;;6.60;4.35;;;;;;;-140.79;100.00;63287.88;5006689;28;20040;-58
2021/12/26 06:40:48;;;;;;;5.68;4.13;;;;;;;-140.79;100.00;63287.88;5024574;28;20036;-59
2021/12/26 06:43:13;;;;;;;5.95;4.10;;;;;;;-140.79;100.00;63287.88;5024523;28;20033;-57
2021/12/26 06:45:38;;;;;;;5.68;4.55;;;;;;;-140.79;100.00;63287.88;5022814;28;20017;-60
2021/12/26 06:48:06;;;;;;;5.80;4.60;;;;;;;-140.79;100.00;63287.88;5021915;28;20036;-60
2021/12/26 06:50:32;;;;;;;7.30;4.63;;;;;;;-140.79;100.00;63287.88;5004862;28;20029;-57
2021/12/26 06:52:57;;;;;;;4.95;4.05;;;;;;;-140.79;100.00;63287.88;5019927;28;20092;-58
2021/12/26 06:55:22;;;;;;;6.25;4.32;;;;;;;-140.79;100.00;63287.88;5017808;28;20032;-57
2021/12/26 06:57:48;;;;;;;6.95;4.50;;;;;;;-140.79;100.00;63287.88;5023843;28;20042;-58
2021/12/26 07:00:15;;;;;;;5.90;3.92;;;;;;;-140.79;100.00;63287.88;5023689;28;20498;-58
2021/12/26 07:02:41;;;;;;;6.15;4.07;;;;;;;-140.79;100.00;63287.88;5021042;28;20029;-59
2021/12/26 07:05:06;;;;;;;5.57;4.32;;;;;;;-140.79;100.00;63287.88;5020258;28;20501;-59
2021/12/26 07:07:32;;;;;;;5.78;4.35;;;;;;;-140.79;100.00;63287.88;5023792;28;20033;-60
2021/12/26 07:09:57;;;;;;;5.68;3.95;;;;;;;-140.79;100.00;63287.88;5017243;28;20040;-59
2021/12/26 07:12:22;;;;;;;5.70;4.32;;;;;;;-140.79;100.00;63287.88;5022531;28;20432;-58
2021/12/26 07:14:48;;;;;;;4.90;3.58;;;;;;;-140.79;100.00;63287.88;5012892;28;20565;-58
2021/12/26 07:17:13;;;;;;;5.20;3.65;;;;;;;-140.79;100.00;63287.88;5007940;28;20052;-56
2021/12/26 07:19:39;;;;;;;6.85;4.47;;;;;;;-140.79;100.00;63287.88;5005226;28;20033;-58
2021/12/26 07:22:04;;;;;;;5.95;4.18;;;;;;;-140.79;100.00;63287.88;5006235;28;20080;-56
2021/12/26 07:24:30;;;;;;;5.95;4.47;;;;;;;-140.79;100.00;63287.88;5024364;28;20017;-58
2021/12/26 07:26:55;;;;;;;7.00;4.10;;;;;;;-140.79;100.00;63287.88;5024066;28;20539;-56
2021/12/26 07:29:21;;;;;;;5.25;4.00;;;;;;;-140.79;100.00;63287.88;5023923;28;20083;-55
2021/12/26 07:31:46;;;;;;;7.22;4.65;;;;;;;-140.79;100.00;63287.88;5023663;28;20025;-58
2021/12/26 07:34:12;;;;;;;4.88;3.92;;;;;;;-140.79;100.00;63287.88;5006524;28;20115;-60
2021/12/26 07:36:37;;;;;;;6.22;4.30;;;;;;;-140.79;100.00;63287.88;5006025;28;20085;-58
2021/12/26 07:39:03;;;;;;;5.70;4.25;;;;;;;-140.79;100.00;63287.88;5003745;28;20014;-59
2021/12/26 07:41:29;;;;;;;5.28;3.97;;;;;;;-140.79;100.00;63287.88;5018601;28;20017;-59
2021/12/26 07:43:54;;;;;;;5.95;4.22;;;;;;;-140.79;100.00;63287.88;4982443;28;20042;-58
2021/12/26 07:46:19;;;;;;;5.85;3.97;;;;;;;-140.79;100.00;63287.88;4982360;28;20052;-58
2021/12/26 07:48:45;;;;;;;5.30;3.92;;;;;;;-140.79;100.00;63287.88;4999808;28;20484;-55
2021/12/26 07:51:11;;;;;;;4.53;3.72;;;;;;;-140.79;100.00;63287.88;5003795;28;20019;-53
2021/12/26 07:53:36;;;;;;;5.75;4.00;;;;;;;-140.79;100.00;63287.88;5003843;28;20048;-59
2021/12/26 07:56:01;;;;;;;5.55;3.90;;;;;;;-140.79;100.00;63287.88;5002269;28;20502;-58
2021/12/26 07:58:27;;;;;;;4.65;3.60;;;;;;;-140.79;100.00;63287.88;5003768;28;20377;-58
2021/12/26 08:00:52;;;;;;;4.97;3.80;;;;;;;-140.79;100.00;63287.88;5003880;28;20558;-54
2021/12/26 08:03:18;;;;;;;4.97;4.00;;;;;;;-140.79;100.00;63287.88;5018792;28;20041;-56
2021/12/26 08:05:43;;;;;;;5.68;4.18;;;;;;;-140.79;100.00;63287.88;5000603;28;20030;-56
2021/12/26 08:08:09;;;;;;;4.82;3.72;;;;;;;-140.79;100.00;63287.88;5002844;28;20030;-62
2021/12/26 08:10:34;;;;;;;5.75;3.83;;;;;;;-140.79;100.00;63287.88;5002997;28;20033;-57
2021/12/26 08:12:59;;;;;;;5.13;3.60;;;;;;;-140.79;100.00;63287.88;5002976;28;20038;-64
2021/12/26 08:15:25;;;;;;;4.63;3.90;;;;;;;-140.79;100.00;63287.88;5003010;28;20033;-60
2021/12/26 08:17:50;;;;;;;5.18;3.85;;;;;;;-140.79;100.00;63287.88;5002797;28;20037;-57
2021/12/26 08:20:16;;;;;;;5.40;4.05;;;;;;;-140.79;100.00;63287.88;5002501;28;20018;-60
2021/12/26 08:22:41;;;;;;;5.43;3.97;;;;;;;-140.79;100.00;63287.88;5003393;28;20148;-57
2021/12/26 08:25:07;;;;;;;4.97;4.10;;;;;;;-140.79;100.00;63287.88;5003429;28;20038;-63
2021/12/26 08:27:33;;;;;;;4.80;3.60;;;;;;;-140.79;100.00;63287.88;5002828;28;20026;-62
2021/12/26 08:29:59;;;;;;;5.20;3.70;;;;;;;-140.79;100.00;63287.88;5006459;28;20033;-66
2021/12/26 08:32:25;;;;;;;4.68;3.80;;;;;;;-140.79;100.00;63287.88;5006864;28;20045;-54
2021/12/26 08:34:52;;;;;;;4.85;3.80;;;;;;;-140.79;100.00;63287.88;5006482;28;20029;-58
2021/12/26 08:37:17;;;;;;;5.03;4.00;;;;;;;-140.79;100.00;63287.88;5005608;28;20029;-62
2021/12/26 08:39:43;;;;;;;5.03;3.70;;;;;;;-140.79;100.00;63287.88;5021664;28;20091;-62
2021/12/26 08:42:10;;;;;;;5.35;3.85;;;;;;;-140.79;100.00;63287.88;5005527;28;20025;-61
2021/12/26 08:44:35;;;;;;;4.55;3.55;;;;;;;-140.79;100.00;63287.88;5005942;28;20041;-57
2021/12/26 08:47:01;;;;;;;5.03;3.75;;;;;;;-140.79;100.00;63287.88;5006153;28;20068;-59
2021/12/26 08:49:27;;;;;;;4.47;3.50;;;;;;;-140.79;100.00;63287.88;5005825;28;20488;-60
2021/12/26 08:51:52;;;;;;;4.68;3.45;;;;;;;-140.79;100.00;63287.88;5005486;28;20485;-60
2021/12/26 08:54:18;;;;;;;5.38;3.58;;;;;;;-140.79;100.00;63287.88;5005351;28;20033;-61
2021/12/26 08:56:44;;;;;;;4.63;3.60;;;;;;;-140.79;100.00;63287.88;5005644;28;20087;-62
2021/12/26 08:59:09;;;;;;;4.80;3.70;;;;;;;-140.79;100.00;63287.88;5006290;28;20116;-62
2021/12/26 09:01:35;;;;;;;4.63;3.45;;;;;;;-140.79;100.00;63287.88;5021238;28;20099;-62
2021/12/26 09:04:00;;;;;;;4.43;3.63;;;;;;;-140.79;100.00;63287.88;5005096;28;20499;-63
2021/12/26 09:06:25;;;;;;;5.25;3.60;;;;;;;-140.79;100.00;63287.88;5005825;28;20026;-64
2021/12/26 09:08:51;;;;;;;4.60;3.40;;;;;;;-140.79;100.00;63287.88;5005274;28;20033;-56
2021/12/26 09:11:17;;;;;;;5.22;3.70;;;;;;;-140.79;100.00;63287.88;5005789;28;20037;-65
2021/12/26 09:13:43;;;;;;;4.40;3.40;;;;;;;-140.79;100.00;63287.88;5006204;28;20119;-57
2021/12/26 09:16:08;;;;;;;4.43;3.60;;;;;;;-140.79;100.00;63287.88;5006242;28;20036;-58
2021/12/26 09:18:34;;;;;;;4.72;3.40;;;;;;;-140.79;100.00;63287.88;5021611;28;20475;-63
2021/12/26 09:20:59;;;;;;;4.38;3.72;;;;;;;-140.79;100.00;63287.88;5006848;28;20037;-57
2021/12/26 09:23:25;;;;;;;5.43;3.47;;;;;;;-140.79;100.00;63287.88;5005669;28;20054;-58
2021/12/26 09:25:50;;;;;;;5.43;3.35;;;;;;;-140.79;100.00;63287.88;5006182;28;20030;-55
2021/12/26 09:28:16;;;;;;;4.43;3.40;;;;;;;-140.79;100.00;63287.88;5005681;28;20037;-59
2021/12/26 09:30:41;;;;;;;4.88;3.53;;;;;;;-140.79;100.00;63287.88;5005935;28;20408;-56
2021/12/26 09:33:07;;;;;;;5.05;3.40;;;;;;;-140.79;100.00;63287.88;5005905;28;20155;-59
2021/12/26 09:35:32;;;;;;;5.30;3.13;;;;;;;-140.79;100.00;63287.88;5005497;28;20030;-56
2021/12/26 09:37:58;;;;;;;4.85;3.53;;;;;;;-140.79;100.00;63287.88;5005406;28;20026;-57
2021/12/26 09:40:23;;;;;;;6.32;4.50;;;;;;;-140.79;100.00;63287.88;5005191;28;20168;-58
2021/12/26 09:42:49;;;;;;;5.47;3.38;;;;;;;-140.79;100.00;63287.88;5005890;28;20025;-60
2021/12/26 09:45:15;;;;;;;4.55;3.60;;;;;;;-140.79;100.00;63287.88;5002280;28;20393;-63
2021/12/26 09:47:40;;;;;;;5.18;3.30;;;;;;;-140.79;100.00;63287.88;4984531;28;20022;-55
2021/12/26 09:50:07;;;;;;;5.35;3.42;;;;;;;-140.79;100.00;63287.88;4987477;28;20669;-59
2021/12/26 09:52:32;;;;;;;4.32;3.22;;;;;;;-140.79;100.00;63287.88;4988359;28;20018;-59
2021/12/26 09:54:58;;;;;;;4.85;3.28;;;;;;;-140.79;100.00;63287.88;4984973;28;20053;-61
2021/12/26 09:57:24;;;;;;;5.25;3.58;;;;;;;-140.79;100.00;63287.88;4997669;28;20181;-62
2021/12/26 09:59:49;;;;;;;4.10;3.33;;;;;;;-140.79;100.00;63287.88;5005041;28;20567;-60
2021/12/26 10:02:15;;;;;;;4.70;3.40;;;;;;;-140.79;100.00;63287.88;5005581;28;20566;-59
2021/12/26 10:04:43;;;;;;;4.55;3.08;;;;;;;-140.79;100.00;63287.88;5005572;28;20524;-56
2021/12/26 10:07:14;;;;;;;6.15;3.25;;;;;;;-140.79;100.00;63287.88;5005872;28;20145;-56
2021/12/26 10:09:41;;;;;;;4.40;3.30;;;;;;;-140.79;100.00;63287.88;5004342;28;20045;-56
2021/12/26 10:12:07;;;;;;;4.65;3.25;;;;;;;-140.79;100.00;63287.88;5004055;28;20033;-56
2021/12/26 10:14:35;;;;;;;4.80;3.42;;;;;;;-140.79;100.00;63287.88;5005583;28;20120;-57
2021/12/26 10:17:05;;;;;;;4.45;3.38;;;;;;;-140.79;100.00;63287.88;5005320;28;20124;-57
2021/12/26 10:19:32;;;;;;;5.50;3.30;;;;;;;-140.79;100.00;63287.88;5005420;28;20029;-56
2021/12/26 10:21:58;;;;;;;5.25;3.70;;;;;;;-140.79;100.00;63287.88;5005309;28;20042;-57
2021/12/26 10:24:24;;;;;;;5.20;3.53;;;;;;;-140.79;100.00;63287.88;5004018;28;20538;-56
2021/12/26 10:26:57;;;;;;;5.80;3.55;;;;;;;-140.79;100.00;63287.88;5005437;28;20041;-57
2021/12/26 10:29:30;;;;;;;4.18;3.28;;;;;;;-140.79;100.00;63287.88;5005255;28;20165;-56
2021/12/26 10:31:57;;;;;;;4.38;3.05;;;;;;;-140.79;100.00;63287.88;5005621;28;20549;-57
2021/12/26 10:34:25;;;;;;;5.05;3.53;;;;;;;-140.79;100.00;63287.88;5004852;28;20037;-56
2021/12/26 10:36:52;;;;;;;5.35;3.55;;;;;;;-140.79;100.00;63287.88;5005449;28;20523;-56
2021/12/26 10:39:21;;;;;;;4.82;3.28;;;;;;;-140.79;100.00;63287.88;5005160;28;20060;-57
2021/12/26 10:41:48;;;;;;;6.60;4.38;;;;;;;-140.79;100.00;63287.88;5003877;28;20096;-59
2021/12/26 10:44:41;;;;;;;5.95;4.40;;;;;;;-140.79;100.00;63287.88;5004733;28;20049;-60
2021/12/26 10:47:27;;;;;;;5.50;4.03;;;;;;;-140.79;100.00;63287.88;4997375;28;20044;-60
2021/12/26 10:49:54;;;;;;;6.38;4.30;;;;;;;-140.79;100.00;63287.88;5004311;28;20487;-58
2021/12/26 10:52:31;;;;;;;5.95;3.95;;;;;;;-140.79;100.00;63287.88;5004138;28;20030;-60
2021/12/26 10:55:00;;;;;;;5.68;3.95;;;;;;;-140.79;100.00;63287.88;5003033;28;20841;-59
2021/12/26 10:57:36;;;;;;;6.65;4.15;;;;;;;-140.79;100.00;63287.88;5004688;28;20042;-60
2021/12/26 11:00:12;;;;;;;4.80;3.75;;;;;;;-140.79;100.00;63287.88;5004256;28;20026;-59
2021/12/26 11:02:40;;;;;;;6.70;4.13;;;;;;;-140.79;100.00;63287.88;5004955;28;20045;-60
2021/12/26 11:05:08;;;;;;;5.93;4.15;;;;;;;-140.79;100.00;63287.88;5004424;28;20087;-55
2021/12/26 11:07:44;;;;;;;5.68;3.88;;;;;;;-140.79;100.00;63287.88;5002294;28;20500;-59
2021/12/26 11:10:15;;;;;;;6.28;4.03;;;;;;;-140.79;100.00;63287.88;5002128;28;20045;-60